Paauilo, Hawaii
Current Conditions -  °F | °C
As of 7:56 AM on Thursday 23 Oct 2014 (Local Time) from PHSF Reporting Station
Clear Clear  
Wind Chill: 63°   Ceiling: Unl
Heat Index: 63°   Visibility: 10mi
Dew Point: 53°   Wind: 0mph
Humidity: 69%   Direction: NA
Pressure: 30.38"   Gusts: NA
Location:  20.03°N, 155.36°W
Report Text: PHSF 231756Z AUTO 00000KT 10SM CLR 17/12 A3038 RMK AO2 SLP171 T01740117 10174 20101 52013 $
Loading
Personal Weather Stations






























Interactive Weather Map
Tropical Storm Tracking
New forecast layout! Learn more

10-Day Weather Forecast

Advertisements
Track Severe Weather on mobile